Time;durP1;ratioP1;P1;durP2;ratioP2;P2;SDS_P1;SDS_P2;PMS_P1;PMS_P2;Temp;Humidity;BMP_temperature;BMP_pressure;BME280_temperature;BME280_humidity;BME280_pressure;Samples;Min_cycle;Max_cycle;Signal;HPM_P1;HPM_P2
2022/11/24 00:55:00;;;;;;;9.37;4.80;;;8.30;99.90;;;;;;5074872;27;2311718;-89
2022/11/24 00:57:31;;;;;;;7.43;3.50;;;8.20;99.90;;;;;;5131924;28;20202;-89
2022/11/24 01:00:02;;;;;;;8.33;2.67;;;8.20;99.90;;;;;;5132093;28;20205;-89
2022/11/24 01:02:33;;;;;;;4.57;2.10;;;8.20;99.90;;;;;;5130941;28;20205;-88
2022/11/24 01:05:04;;;;;;;11.67;4.93;;;8.20;99.90;;;;;;5132169;28;20284;-89
2022/11/24 01:07:35;;;;;;;13.00;5.60;;;8.20;99.90;;;;;;5132115;28;20202;-88
2022/11/24 01:10:10;;;;;;;9.47;3.70;;;8.20;99.90;;;;;;5132318;28;20285;-89
2022/11/24 01:12:40;;;;;;;9.40;4.70;;;8.20;99.90;;;;;;5131432;28;20615;-89
2022/11/24 01:15:11;;;;;;;10.77;6.33;;;8.30;99.90;;;;;;5133033;28;20670;-89
2022/11/24 01:17:42;;;;;;;7.93;4.10;;;8.20;99.90;;;;;;5131981;28;20205;-89
2022/11/24 01:20:13;;;;;;;15.87;4.67;;;8.20;99.90;;;;;;5132383;28;20254;-89
2022/11/24 01:22:44;;;;;;;8.63;4.17;;;8.20;99.90;;;;;;5130357;28;20195;-90
2022/11/24 01:25:16;;;;;;;8.20;3.70;;;8.20;99.90;;;;;;5119017;28;20206;-90
2022/11/24 01:27:47;;;;;;;9.93;5.40;;;8.20;99.90;;;;;;5118038;28;20203;-89
2022/11/24 01:30:18;;;;;;;16.87;8.47;;;8.10;99.90;;;;;;5111511;28;20267;-87
2022/11/24 01:32:49;;;;;;;22.80;14.50;;;8.10;99.90;;;;;;5111953;28;20536;-89
2022/11/24 01:35:20;;;;;;;14.90;11.43;;;8.10;99.90;;;;;;5111037;28;20613;-89
2022/11/24 01:37:50;;;;;;;11.00;7.10;;;8.00;99.90;;;;;;5110978;28;20620;-89
2022/11/24 01:40:23;;;;;;;5.57;3.40;;;8.00;99.90;;;;;;5110738;28;20247;-89
2022/11/24 01:42:54;;;;;;;14.60;7.27;;;8.00;99.90;;;;;;5109886;28;20244;-88
2022/11/24 01:45:43;;;;;;;17.93;9.37;;;8.00;99.90;;;;;;5110395;28;20624;-89
2022/11/24 01:48:21;;;;;;;12.37;7.00;;;7.90;99.90;;;;;;5111005;28;20207;-89
2022/11/24 01:51:04;;;;;;;9.43;6.77;;;7.90;99.90;;;;;;5110604;28;20206;-88
2022/11/24 01:53:35;;;;;;;14.57;10.37;;;7.90;99.90;;;;;;5110073;28;20306;-89
2022/11/24 01:56:09;;;;;;;15.33;11.17;;;7.90;99.90;;;;;;5110292;28;20198;-89
2022/11/24 01:58:42;;;;;;;14.20;9.40;;;7.90;99.90;;;;;;5110715;28;20203;-89
2022/11/24 02:01:14;;;;;;;12.00;8.87;;;7.80;99.90;;;;;;5129186;28;20201;-88
2022/11/24 02:03:47;;;;;;;10.27;6.80;;;7.80;99.90;;;;;;5130111;28;20210;-88
2022/11/24 02:06:24;;;;;;;9.93;7.23;;;7.80;99.90;;;;;;5117501;28;20352;-89
2022/11/24 02:09:01;;;;;;;7.87;5.63;;;7.80;99.90;;;;;;5118373;28;20213;-89
2022/11/24 02:11:36;;;;;;;6.77;5.40;;;7.80;99.90;;;;;;5117512;28;20257;-87
2022/11/24 02:14:11;;;;;;;7.60;4.57;;;7.70;99.90;;;;;;5116920;28;20278;-88
2022/11/24 02:16:45;;;;;;;14.73;7.80;;;7.70;99.90;;;;;;5117648;28;20210;-89
2022/11/24 02:19:25;;;;;;;12.83;7.20;;;7.70;99.90;;;;;;5115322;28;20268;-89
2022/11/24 02:21:56;;;;;;;10.37;5.33;;;7.70;99.90;;;;;;5117510;28;20210;-92
2022/11/24 02:24:33;;;;;;;11.10;5.33;;;7.60;99.90;;;;;;5118933;28;20190;-88
2022/11/24 02:27:06;;;;;;;13.50;8.00;;;7.50;99.90;;;;;;5115596;28;20199;-90
2022/11/24 02:29:37;;;;;;;11.37;7.23;;;7.60;99.90;;;;;;5099209;28;20215;-88
2022/11/24 02:32:10;;;;;;;10.67;6.83;;;7.60;99.90;;;;;;5097997;28;20736;-89
2022/11/24 02:34:41;;;;;;;12.60;7.53;;;7.50;99.90;;;;;;5099277;28;20787;-88
2022/11/24 02:37:12;;;;;;;7.30;5.17;;;7.50;99.90;;;;;;5098756;28;20339;-92
2022/11/24 02:39:43;;;;;;;13.50;4.50;;;7.50;99.90;;;;;;5114816;28;20210;-90
2022/11/24 02:42:16;;;;;;;9.07;5.03;;;7.50;99.90;;;;;;5117135;28;20270;-90
2022/11/24 02:44:54;;;;;;;8.70;6.13;;;7.40;99.90;;;;;;5119283;28;20271;-90
2022/11/24 02:47:24;;;;;;;7.73;3.77;;;7.40;99.90;;;;;;5116676;28;20673;-90
2022/11/24 02:49:55;;;;;;;7.17;3.20;;;7.40;99.90;;;;;;5115907;28;20659;-90
2022/11/24 02:52:26;;;;;;;7.57;3.40;;;7.30;99.90;;;;;;5115807;28;20206;-89
2022/11/24 02:54:57;;;;;;;8.33;4.33;;;7.30;99.90;;;;;;5105647;28;20371;-90
2022/11/24 02:57:30;;;;;;;8.10;5.00;;;7.30;99.90;;;;;;5096289;28;20195;-89
2022/11/24 03:00:01;;;;;;;10.37;5.20;;;7.20;99.90;;;;;;5116195;28;20259;-90
2022/11/24 03:02:31;;;;;;;8.10;4.60;;;7.20;99.90;;;;;;5122005;28;20199;-94
2022/11/24 03:05:03;;;;;;;10.60;4.37;;;7.20;99.90;;;;;;5121233;28;20229;-95
2022/11/24 03:07:35;;;;;;;6.50;3.37;;;7.20;99.90;;;;;;5116366;28;20214;-93
2022/11/24 03:10:07;;;;;;;3.70;3.00;;;7.20;99.90;;;;;;5098538;28;20570;-93
2022/11/24 03:12:42;;;;;;;7.23;3.00;;;7.10;99.90;;;;;;5107214;28;20248;-92
2022/11/24 03:15:13;;;;;;;5.00;3.17;;;7.00;99.90;;;;;;5114530;28;20306;-93
2022/11/24 03:17:44;;;;;;;9.20;2.93;;;7.00;99.90;;;;;;5115937;28;20728;-92
2022/11/24 03:20:15;;;;;;;5.57;3.00;;;7.00;99.90;;;;;;5112953;28;20206;-91
2022/11/24 03:22:47;;;;;;;5.17;3.27;;;6.90;99.90;;;;;;5113069;28;22316;-93
2022/11/24 03:25:19;;;;;;;5.33;3.83;;;6.90;99.90;;;;;;5110211;28;20607;-93
2022/11/24 03:27:52;;;;;;;5.60;3.50;;;6.90;99.90;;;;;;5116677;28;20202;-93
2022/11/24 03:30:23;;;;;;;6.40;3.70;;;6.80;99.90;;;;;;5115477;28;20696;-93
2022/11/24 03:32:56;;;;;;;5.17;2.90;;;6.80;99.90;;;;;;5115687;28;20226;-94
2022/11/24 03:35:28;;;;;;;7.23;3.43;;;6.80;99.90;;;;;;5114908;28;20268;-92
2022/11/24 03:37:59;;;;;;;5.20;3.07;;;6.70;99.90;;;;;;5115737;28;20233;-94
2022/11/24 03:40:30;;;;;;;6.87;2.83;;;6.70;99.90;;;;;;5115231;28;20232;-93
2022/11/24 03:43:04;;;;;;;6.10;3.30;;;6.60;99.90;;;;;;5110402;28;20663;-94
2022/11/24 03:45:36;;;;;;;6.37;3.20;;;6.60;99.90;;;;;;5098382;28;20256;-92
2022/11/24 03:48:15;;;;;;;7.70;3.30;;;6.70;99.90;;;;;;5112894;28;20210;-94
2022/11/24 03:50:55;;;;;;;8.97;3.80;;;6.70;99.90;;;;;;5114832;28;20214;-93
2022/11/24 03:53:28;;;;;;;6.70;3.90;;;6.60;99.90;;;;;;5110903;28;20271;-93
2022/11/24 03:56:01;;;;;;;6.13;3.57;;;6.60;99.90;;;;;;5113999;28;20222;-94
2022/11/24 03:58:35;;;;;;;8.53;3.50;;;6.60;99.90;;;;;;5111094;28;20240;-92
2022/11/24 04:01:06;;;;;;;6.63;3.50;;;6.60;99.90;;;;;;5110749;28;20219;-93
2022/11/24 04:03:38;;;;;;;8.70;3.53;;;6.60;99.90;;;;;;5101926;28;20223;-94
2022/11/24 04:06:10;;;;;;;4.40;3.17;;;6.60;99.90;;;;;;5108618;28;20274;-93
2022/11/24 04:08:42;;;;;;;5.50;3.27;;;6.60;99.90;;;;;;5116398;28;20202;-93
2022/11/24 04:12:42;;;;;;;5.13;3.03;;;6.50;99.90;;;;;;5117085;28;20279;-93
2022/11/24 04:14:05;;;;;;;5.90;2.83;;;6.50;99.90;;;;;;5100724;28;20264;-92
2022/11/24 04:16:42;;;;;;;9.77;3.57;;;6.50;99.90;;;;;;5112574;28;20296;-92
2022/11/24 04:19:13;;;;;;;8.30;4.20;;;6.50;99.90;;;;;;5095223;28;20622;-91
2022/11/24 04:21:46;;;;;;;7.17;3.37;;;6.50;99.90;;;;;;5095515;28;20202;-92
2022/11/24 04:24:18;;;;;;;4.67;3.00;;;6.50;99.90;;;;;;5095617;28;20210;-93
2022/11/24 04:26:50;;;;;;;7.50;3.73;;;6.50;99.90;;;;;;5106997;28;20182;-94
2022/11/24 04:29:24;;;;;;;4.63;3.43;;;6.50;99.90;;;;;;5117968;28;20244;-94
2022/11/24 04:31:55;;;;;;;4.07;3.40;;;6.50;99.90;;;;;;5131180;28;20210;-94
2022/11/24 04:34:27;;;;;;;5.17;3.30;;;6.40;99.90;;;;;;5129925;28;20194;-94
2022/11/24 04:36:58;;;;;;;4.70;3.10;;;6.40;99.90;;;;;;5129604;28;20212;-95
2022/11/24 04:39:30;;;;;;;8.67;3.20;;;6.40;99.90;;;;;;5115334;28;20210;-94
2022/11/24 04:42:01;;;;;;;4.23;2.90;;;6.40;99.90;;;;;;5112983;28;20255;-96
2022/11/24 04:44:34;;;;;;;3.70;3.07;;;6.40;99.90;;;;;;5114100;28;20210;-94
2022/11/24 04:47:06;;;;;;;3.83;2.70;;;6.30;99.90;;;;;;5114676;28;20259;-95
2022/11/24 04:49:38;;;;;;;3.30;2.80;;;6.30;99.90;;;;;;5114865;28;20198;-94
2022/11/24 04:52:09;;;;;;;3.00;2.60;;;6.30;99.90;;;;;;5113200;28;20198;-93
2022/11/24 04:54:41;;;;;;;4.87;2.93;;;6.30;99.90;;;;;;5114717;28;20950;-94
2022/11/24 04:57:17;;;;;;;4.00;2.40;;;6.20;99.90;;;;;;5111936;28;20263;-95
2022/11/24 04:59:50;;;;;;;3.50;2.70;;;6.30;99.90;;;;;;5113056;28;20677;-94
2022/11/24 05:02:22;;;;;;;4.33;2.43;;;6.20;99.90;;;;;;5112494;28;20606;-93
2022/11/24 05:04:53;;;;;;;4.30;2.60;;;6.20;99.90;;;;;;5113369;28;20206;-93
2022/11/24 05:07:25;;;;;;;2.80;2.23;;;6.20;99.90;;;;;;5113964;28;20267;-90
2022/11/24 05:12:44;;;;;;;3.87;2.20;;;6.20;99.90;;;;;;5113225;28;20208;-93
2022/11/24 05:15:23;;;;;;;4.73;2.33;;;6.10;99.90;;;;;;5113691;28;20233;-93
2022/11/24 05:17:55;;;;;;;4.70;2.23;;;6.10;99.90;;;;;;5113292;28;20229;-94
2022/11/24 05:20:27;;;;;;;4.73;2.00;;;6.10;99.90;;;;;;5097160;28;20894;-93
2022/11/24 05:23:02;;;;;;;6.30;1.90;;;6.10;99.90;;;;;;5112594;28;20702;-93
2022/11/24 05:25:34;;;;;;;4.57;2.40;;;6.20;99.90;;;;;;5112980;28;20245;-92
2022/11/24 05:28:08;;;;;;;2.30;1.90;;;6.20;99.90;;;;;;5112994;28;20214;-94
2022/11/24 05:30:42;;;;;;;2.80;1.60;;;6.10;99.90;;;;;;5094504;28;20202;-93
2022/11/24 05:33:17;;;;;;;3.47;2.00;;;6.10;99.90;;;;;;5109359;28;20860;-94
2022/11/24 05:35:49;;;;;;;3.63;1.77;;;6.10;99.90;;;;;;5113179;28;20218;-93
2022/11/24 05:38:21;;;;;;;3.17;1.53;;;6.10;99.90;;;;;;5107642;28;20235;-93
2022/11/24 05:40:52;;;;;;;3.97;1.50;;;6.10;99.90;;;;;;5104490;28;20198;-93
2022/11/24 05:43:23;;;;;;;2.47;1.40;;;6.10;99.90;;;;;;5116158;28;20230;-93
2022/11/24 05:45:59;;;;;;;2.30;1.50;;;6.10;99.90;;;;;;5117225;28;20603;-93
2022/11/24 05:48:30;;;;;;;2.33;1.53;;;6.10;99.90;;;;;;5104632;28;20784;-93
2022/11/24 05:51:01;;;;;;;2.90;1.50;;;6.10;99.90;;;;;;5101873;28;20260;-94
2022/11/24 05:53:38;;;;;;;5.17;1.70;;;6.10;99.90;;;;;;5107065;28;20614;-95
2022/11/24 05:56:10;;;;;;;3.23;1.60;;;6.10;99.90;;;;;;5117065;28;20253;-94
2022/11/24 05:58:41;;;;;;;3.37;1.50;;;6.10;99.90;;;;;;5099811;28;20209;-93
2022/11/24 06:01:13;;;;;;;2.10;1.50;;;6.10;99.90;;;;;;5106198;28;20216;-94
2022/11/24 06:03:44;;;;;;;2.97;1.70;;;6.10;99.90;;;;;;5101748;28;20237;-93
2022/11/24 06:06:16;;;;;;;2.57;1.47;;;6.10;99.90;;;;;;5116742;28;20281;-93
2022/11/24 06:08:49;;;;;;;2.23;1.50;;;6.10;99.90;;;;;;5116827;28;20737;-93
2022/11/24 06:11:21;;;;;;;4.90;1.50;;;6.10;99.90;;;;;;5121120;28;20230;-93
2022/11/24 06:13:53;;;;;;;2.00;1.20;;;6.10;99.90;;;;;;5100764;28;20211;-94
2022/11/24 06:16:26;;;;;;;3.37;1.20;;;6.10;99.90;;;;;;5106830;28;20241;-94
2022/11/24 06:18:58;;;;;;;2.53;1.60;;;6.00;99.90;;;;;;5117761;28;20206;-92
2022/11/24 06:21:29;;;;;;;1.40;1.30;;;6.00;99.90;;;;;;5117854;28;20286;-94
2022/11/24 06:24:01;;;;;;;1.47;1.00;;;5.90;99.90;;;;;;5120149;28;20830;-94
2022/11/24 06:26:32;;;;;;;2.33;1.33;;;5.90;99.90;;;;;;5117096;28;20240;-94
2022/11/24 06:29:04;;;;;;;2.93;1.63;;;5.90;99.90;;;;;;5117433;28;20288;-94
2022/11/24 06:31:37;;;;;;;2.47;1.30;;;5.90;99.90;;;;;;5118313;28;20216;-94
2022/11/24 06:34:09;;;;;;;2.73;1.20;;;5.80;99.90;;;;;;5116200;28;20228;-93
2022/11/24 06:36:41;;;;;;;3.40;1.60;;;5.80;99.90;;;;;;5118340;28;20225;-94
2022/11/24 06:39:14;;;;;;;3.33;1.80;;;5.80;99.90;;;;;;5107629;28;20295;-95
2022/11/24 06:41:46;;;;;;;3.53;2.20;;;5.70;99.90;;;;;;5133392;28;20209;-94
2022/11/24 06:44:17;;;;;;;4.80;2.33;;;5.70;99.90;;;;;;5132046;27;20198;-93
2022/11/24 06:46:50;;;;;;;4.87;2.77;;;5.70;99.90;;;;;;5124156;28;20194;-93
2022/11/24 06:49:22;;;;;;;3.60;2.80;;;5.60;99.90;;;;;;5131840;28;20214;-93
2022/11/24 06:51:55;;;;;;;4.87;3.27;;;5.60;99.90;;;;;;5116341;28;20201;-92
2022/11/24 06:54:27;;;;;;;3.33;2.43;;;5.60;99.90;;;;;;5098176;28;20237;-93
2022/11/24 06:56:58;;;;;;;4.67;2.73;;;5.50;99.90;;;;;;5099101;28;20317;-93
2022/11/24 06:59:29;;;;;;;4.30;3.13;;;5.50;99.90;;;;;;5116314;28;20210;-92
2022/11/24 07:02:03;;;;;;;5.30;2.93;;;5.50;99.90;;;;;;5117291;28;20265;-93
2022/11/24 07:04:33;;;;;;;3.03;2.27;;;5.50;99.90;;;;;;5098854;28;20285;-94
2022/11/24 07:07:05;;;;;;;4.30;2.60;;;5.40;99.90;;;;;;5096003;28;20199;-93
2022/11/24 07:09:36;;;;;;;5.00;2.30;;;5.40;99.90;;;;;;5096376;28;20679;-93
2022/11/24 07:12:08;;;;;;;4.90;2.10;;;5.40;99.90;;;;;;5100391;28;20208;-92
2022/11/24 07:14:40;;;;;;;5.70;2.43;;;5.40;99.90;;;;;;5116222;28;20681;-92
2022/11/24 07:17:14;;;;;;;5.10;2.43;;;5.40;99.90;;;;;;5105052;28;20655;-93
2022/11/24 07:19:45;;;;;;;3.50;2.00;;;5.30;99.90;;;;;;5096893;28;20655;-93
2022/11/24 07:22:16;;;;;;;4.07;1.73;;;5.30;99.90;;;;;;5114337;28;20210;-93
2022/11/24 07:24:48;;;;;;;5.17;2.47;;;5.30;99.90;;;;;;5114818;28;20562;-93
2022/11/24 07:27:21;;;;;;;4.23;2.23;;;5.20;99.90;;;;;;5102286;28;20233;-92
2022/11/24 07:29:52;;;;;;;6.00;2.30;;;5.20;99.90;;;;;;5117833;28;20206;-94
2022/11/24 07:32:26;;;;;;;4.43;2.43;;;5.20;99.90;;;;;;5114342;28;20281;-92
2022/11/24 07:34:57;;;;;;;5.33;2.13;;;5.20;99.90;;;;;;5115920;28;20777;-93
2022/11/24 07:37:28;;;;;;;2.93;1.70;;;5.10;99.90;;;;;;5099232;28;20313;-93
2022/11/24 07:40:00;;;;;;;2.57;1.57;;;5.10;99.90;;;;;;5114771;28;20198;-92
2022/11/24 07:42:32;;;;;;;2.93;1.60;;;5.10;99.90;;;;;;5111280;28;20238;-92
2022/11/24 07:45:04;;;;;;;3.17;1.10;;;5.10;99.90;;;;;;5110055;28;20305;-92
2022/11/24 07:47:41;;;;;;;3.37;1.40;;;5.10;99.90;;;;;;5096037;28;20246;-91
2022/11/24 07:50:13;;;;;;;1.47;1.27;;;5.10;99.90;;;;;;5106749;28;20297;-93
2022/11/24 07:52:44;;;;;;;1.90;1.37;;;5.10;99.90;;;;;;5100707;28;20245;-92
2022/11/24 07:55:16;;;;;;;1.87;1.33;;;5.10;99.90;;;;;;5106552;28;20202;-91
2022/11/24 07:57:48;;;;;;;2.23;1.33;;;5.10;99.90;;;;;;5114098;28;20331;-92
2022/11/24 08:00:20;;;;;;;1.57;1.10;;;5.00;99.90;;;;;;5114969;28;20233;-93
2022/11/24 08:02:54;;;;;;;1.67;1.20;;;5.00;99.90;;;;;;5113092;28;20210;-92
2022/11/24 08:05:26;;;;;;;1.43;1.20;;;5.00;99.90;;;;;;5115033;28;20207;-92
2022/11/24 08:07:57;;;;;;;2.50;1.40;;;5.00;99.90;;;;;;5113826;28;20292;-93
2022/11/24 08:10:28;;;;;;;3.73;1.50;;;5.10;99.90;;;;;;5094562;28;20238;-92
2022/11/24 08:13:03;;;;;;;5.73;1.40;;;5.10;99.90;;;;;;5111847;28;20228;-92
2022/11/24 08:15:34;;;;;;;1.17;1.03;;;5.20;99.90;;;;;;5109376;28;20560;-92
2022/11/24 08:18:07;;;;;;;1.17;0.90;;;5.20;99.90;;;;;;5112383;28;20702;-93
2022/11/24 08:20:38;;;;;;;1.53;1.23;;;5.20;99.90;;;;;;5113904;28;20294;-92
2022/11/24 08:23:11;;;;;;;1.87;1.30;;;5.30;99.90;;;;;;5113781;28;20262;-91
2022/11/24 08:25:41;;;;;;;2.60;1.60;;;5.50;99.90;;;;;;5113746;28;20229;-92
2022/11/24 08:28:14;;;;;;;3.40;1.40;;;5.50;99.90;;;;;;5113928;28;20764;-92
2022/11/24 08:30:45;;;;;;;2.10;1.30;;;5.50;99.90;;;;;;5114402;28;20229;-93
2022/11/24 08:33:18;;;;;;;2.27;1.23;;;5.60;99.90;;;;;;5114166;28;20213;-93
2022/11/24 08:35:49;;;;;;;4.40;1.50;;;5.60;99.90;;;;;;5102855;28;20294;-92
2022/11/24 08:38:21;;;;;;;1.33;1.10;;;5.80;99.90;;;;;;5096571;28;20227;-92
2022/11/24 08:40:52;;;;;;;1.37;1.03;;;5.80;99.90;;;;;;5114196;28;20233;-93
2022/11/24 08:43:23;;;;;;;1.00;0.90;;;5.80;99.90;;;;;;5112362;28;20209;-92
2022/11/24 08:45:55;;;;;;;1.23;0.97;;;5.80;99.90;;;;;;5113828;28;20707;-93
2022/11/24 08:48:28;;;;;;;1.10;1.00;;;5.80;99.90;;;;;;5114322;28;20202;-92
2022/11/24 08:51:01;;;;;;;3.03;0.93;;;5.90;99.90;;;;;;5114499;28;20206;-93
